Green Township, Ohio
Current Conditions -  °F | °C
As of 3:35 PM on Saturday 25 Oct 2014 (Local Time) from KI69 Reporting Station
Clear Clear  
Wind Chill: 72°   Ceiling: Unl
Heat Index: 72°   Visibility: 10mi
Dew Point: 57°   Wind: 9mph
Humidity: 60%   Direction: 280°W
Pressure: 29.91"   Gusts: NA
Location:  39.1663°N, 84.6602°W
Report Text: KI69 251935Z AUTO 28008KT 10SM CLR 22/14 A2991 RMK AO1
Loading
Personal Weather Stations






























Interactive Weather Map
Tropical Storm Tracking
New forecast layout! Learn more

10-Day Weather Forecast

Advertisements
Track Severe Weather on mobile